Time;durP1;ratioP1;P1;durP2;ratioP2;P2;SDS_P1;SDS_P2;PMS_P1;PMS_P2;Temp;Humidity;BMP_temperature;BMP_pressure;BME280_temperature;BME280_humidity;BME280_pressure;Samples;Min_cycle;Max_cycle;Signal;HPM_P1;HPM_P2
2022/09/18 00:01:18;;;;;;;22.73;2.08;;;;;;;13.05;81.73;101558.81;4994333;28;20045;-76
2022/09/18 00:03:45;;;;;;;18.02;1.77;;;;;;;13.11;81.21;101558.06;5006415;28;20161;-76
2022/09/18 00:06:21;;;;;;;18.10;1.70;;;;;;;13.18;81.58;101564.44;4991841;28;20027;-76
2022/09/18 00:08:51;;;;;;;24.25;1.83;;;;;;;13.19;82.29;101555.28;5002610;28;20054;-73
2022/09/18 00:11:17;;;;;;;22.85;2.58;;;;;;;13.21;80.39;101555.13;5011174;28;20049;-74
2022/09/18 00:13:43;;;;;;;13.20;1.33;;;;;;;13.22;79.16;101556.78;5011689;28;20038;-74
2022/09/18 00:16:10;;;;;;;29.80;1.88;;;;;;;13.27;77.57;101562.53;5007339;28;20105;-75
2022/09/18 00:18:36;;;;;;;21.10;1.85;;;;;;;13.28;74.94;101565.06;5012553;28;20037;-74
2022/09/18 00:21:14;;;;;;;21.70;1.70;;;;;;;13.35;74.81;101557.09;5009043;28;20058;-75
2022/09/18 00:23:40;;;;;;;29.55;1.38;;;;;;;13.43;75.27;101542.63;5000909;28;20022;-74
2022/09/18 00:26:06;;;;;;;20.80;1.80;;;;;;;13.47;75.84;101552.06;4976095;28;20022;-74
2022/09/18 00:28:32;;;;;;;17.98;1.30;;;;;;;13.45;75.71;101549.53;5004989;28;20037;-74
2022/09/18 00:31:05;;;;;;;10.65;1.63;;;;;;;13.48;74.24;101549.19;5015354;28;20038;-74
2022/09/18 00:33:31;;;;;;;21.75;1.73;;;;;;;13.50;73.64;101547.09;4996118;28;20042;-74
2022/09/18 00:36:01;;;;;;;12.95;1.38;;;;;;;13.54;74.74;101558.41;5010848;28;20118;-75
2022/09/18 00:38:28;;;;;;;24.70;2.60;;;;;;;13.51;77.88;101565.03;4991485;28;20026;-74
2022/09/18 00:40:53;;;;;;;26.38;1.55;;;;;;;13.36;80.87;101566.84;4993114;28;20114;-74
2022/09/18 00:43:22;;;;;;;17.02;1.45;;;;;;;13.16;82.20;101571.88;5014509;28;20027;-75
2022/09/18 00:46:00;;;;;;;17.30;1.40;;;;;;;12.92;82.57;101571.03;5018678;28;20026;-74
2022/09/18 00:48:44;;;;;;;15.27;1.35;;;;;;;12.69;82.02;101570.19;4996553;28;20035;-74
2022/09/18 00:51:10;;;;;;;11.45;1.80;;;;;;;12.61;80.69;101567.53;4996199;28;20061;-75
2022/09/18 00:53:39;;;;;;;9.77;1.10;;;;;;;12.60;80.83;101565.84;4995330;28;20122;-74
2022/09/18 00:56:06;;;;;;;7.80;1.20;;;;;;;12.65;80.92;101563.47;5010174;28;20041;-74
2022/09/18 00:58:32;;;;;;;22.17;2.60;;;;;;;12.67;81.65;101550.63;4991824;28;20010;-74
2022/09/18 01:00:58;;;;;;;23.75;1.33;;;;;;;12.76;81.43;101564.91;5008656;28;20058;-74
2022/09/18 01:03:23;;;;;;;16.10;1.50;;;;;;;12.80;82.12;101567.09;5007620;28;20030;-76
2022/09/18 01:06:34;;;;;;;12.90;1.48;;;;;;;12.79;82.61;101562.69;4992461;28;20029;-74
2022/09/18 01:09:31;;;;;;;24.63;1.27;;;;;;;12.80;82.61;101550.06;4979755;28;20097;-74
2022/09/18 01:12:22;;;;;;;23.80;1.52;;;;;;;12.77;83.52;101564.75;5008262;28;20046;-74
2022/09/18 01:14:59;;;;;;;18.48;2.03;;;;;;;12.77;84.06;101551.25;5008519;28;20042;-73
2022/09/18 01:17:32;;;;;;;22.10;1.50;;;;;;;12.74;82.97;101549.75;5004445;28;20034;-75
2022/09/18 01:20:16;;;;;;;20.98;1.58;;;;;;;12.79;82.19;101549.19;4997071;28;20034;-74
2022/09/18 01:23:02;;;;;;;14.70;1.05;;;;;;;12.80;81.31;101545.47;4990408;28;20093;-73
2022/09/18 01:25:46;;;;;;;9.90;1.25;;;;;;;12.85;77.15;101537.69;4979050;28;20046;-73
2022/09/18 01:28:37;;;;;;;17.70;1.63;;;;;;;12.94;75.60;101528.47;4994722;28;20038;-74
2022/09/18 01:31:07;;;;;;;10.40;0.93;;;;;;;13.04;74.16;101530.94;4996575;28;20034;-74
2022/09/18 01:33:59;;;;;;;11.32;1.33;;;;;;;13.16;72.36;101518.69;4979990;28;20038;-73
2022/09/18 01:36:27;;;;;;;12.43;1.00;;;;;;;13.18;71.67;101521.19;4986494;28;20073;-73
2022/09/18 01:38:56;;;;;;;30.17;2.72;;;;;;;13.22;70.31;101525.22;4987675;28;20041;-73
2022/09/18 01:41:24;;;;;;;8.13;0.90;;;;;;;13.24;69.81;101514.22;4987123;28;20046;-74
2022/09/18 01:43:53;;;;;;;7.50;0.63;;;;;;;13.29;69.40;101518.06;4994981;28;20030;-75
2022/09/18 01:46:19;;;;;;;16.58;1.20;;;;;;;13.34;69.43;101521.06;5007632;28;20034;-73
2022/09/18 01:48:47;;;;;;;6.40;1.30;;;;;;;13.36;69.71;101502.81;4997030;28;20027;-74
2022/09/18 01:51:19;;;;;;;8.27;1.13;;;;;;;13.41;70.33;101514.94;4984594;28;20035;-73
2022/09/18 01:53:48;;;;;;;24.17;2.65;;;;;;;13.42;71.08;101511.22;4979231;28;20042;-74
2022/09/18 01:56:50;;;;;;;17.65;1.90;;;;;;;13.43;71.42;101513.75;5002109;28;20121;-74
2022/09/18 01:59:23;;;;;;;23.65;1.92;;;;;;;13.49;72.87;101495.94;4997416;28;20030;-73
2022/09/18 02:01:48;;;;;;;19.23;1.67;;;;;;;13.51;73.99;101507.41;4996806;28;20118;-73
2022/09/18 02:04:18;;;;;;;17.15;2.22;;;;;;;13.55;75.12;101516.81;4987705;28;20030;-73
2022/09/18 02:06:53;;;;;;;19.70;1.58;;;;;;;13.54;77.85;101513.28;5039134;23;20060;-37
2022/09/18 02:09:18;;;;;;;25.42;2.85;;;;;;;13.48;79.79;101514.03;4997381;28;20477;-38
2022/09/18 02:11:46;;;;;;;26.35;3.55;;;;;;;13.36;81.35;101519.03;5001964;28;20069;-39
2022/09/18 02:14:13;;;;;;;;;;;;;;;13.27;80.71;101514.75;5001804;28;20031;-38
2022/09/18 02:16:45;;;;;;;16.45;1.40;;;;;;;13.17;77.78;101514.94;4997645;28;20254;-38
2022/09/18 02:19:37;;;;;;;19.08;1.52;;;;;;;13.19;75.37;101506.63;5000832;28;20409;-38
2022/09/18 02:22:06;;;;;;;21.17;1.40;;;;;;;13.20;75.04;101507.50;4994099;28;20050;-38
2022/09/18 02:24:33;;;;;;;10.93;0.82;;;;;;;13.25;74.04;101503.22;4998426;28;20038;-39
2022/09/18 02:26:59;;;;;;;16.45;1.20;;;;;;;13.28;72.78;101500.19;4999158;28;20097;-39
2022/09/18 02:29:24;;;;;;;24.98;1.58;;;;;;;13.29;72.70;101501.03;4999787;28;20131;-39
2022/09/18 02:31:50;;;;;;;14.57;1.02;;;;;;;13.39;72.40;101507.84;5000119;28;20026;-39
2022/09/18 02:34:16;;;;;;;19.48;1.15;;;;;;;13.42;72.58;101500.38;4988889;28;20030;-39
2022/09/18 02:37:00;;;;;;;17.83;1.40;;;;;;;13.44;72.05;101499.19;4980431;28;20090;-38
2022/09/18 02:39:44;;;;;;;16.35;1.50;;;;;;;13.52;70.96;101503.66;4982386;28;20061;-38
2022/09/18 02:42:30;;;;;;;12.52;2.42;;;;;;;13.54;69.74;101490.81;4997134;28;20038;-38
2022/09/18 02:45:09;;;;;;;15.90;1.33;;;;;;;13.57;68.27;101493.97;5000055;28;20194;-40
2022/09/18 02:47:57;;;;;;;9.85;1.13;;;;;;;13.52;67.17;101484.75;5000512;28;20201;-39
2022/09/18 02:50:32;;;;;;;9.23;0.93;;;;;;;13.55;64.88;101495.19;5000220;28;20026;-38
2022/09/18 02:53:21;;;;;;;10.25;1.00;;;;;;;13.58;64.89;101495.63;5001805;28;20133;-38
2022/09/18 02:55:51;;;;;;;14.00;1.17;;;;;;;13.66;65.69;101502.00;5001909;28;20034;-37
2022/09/18 02:58:45;;;;;;;15.80;1.95;;;;;;;13.65;67.58;101490.34;4998968;28;20117;-38
2022/09/18 03:01:12;;;;;;;25.70;2.97;;;;;;;13.66;69.67;101500.13;4998586;28;20037;-38
2022/09/18 03:03:38;;;;;;;17.33;1.40;;;;;;;13.68;70.83;101495.38;5016533;28;20398;-38
2022/09/18 03:06:05;;;;;;;16.17;1.33;;;;;;;13.68;71.22;101495.38;4995983;28;20146;-38
2022/09/18 03:08:30;;;;;;;28.95;4.25;;;;;;;13.69;71.26;101490.78;4980334;28;20041;-40
2022/09/18 03:10:56;;;;;;;10.90;1.33;;;;;;;13.67;71.16;101496.41;4979754;28;20446;-39
2022/09/18 03:13:21;;;;;;;17.98;1.45;;;;;;;13.62;70.72;101485.31;4980009;28;20026;-39
2022/09/18 03:15:47;;;;;;;14.77;1.75;;;;;;;13.58;70.32;101486.69;4981370;28;20105;-38
2022/09/18 03:18:13;;;;;;;9.40;0.93;;;;;;;13.53;70.69;101486.41;4980605;28;20050;-37
2022/09/18 03:20:40;;;;;;;17.63;1.55;;;;;;;13.54;70.26;101493.50;4978514;28;20045;-37
2022/09/18 03:23:05;;;;;;;18.15;0.90;;;;;;;13.50;71.58;101492.19;4978760;28;20065;-38
2022/09/18 03:25:31;;;;;;;18.25;1.40;;;;;;;13.49;72.04;101487.81;4978610;28;20039;-37
2022/09/18 03:27:56;;;;;;;11.48;1.38;;;;;;;13.45;73.33;101500.00;4980518;28;20103;-37
2022/09/18 03:30:22;;;;;;;25.08;1.75;;;;;;;13.43;75.01;101485.84;4980528;28;20042;-38
2022/09/18 03:32:47;;;;;;;15.23;1.98;;;;;;;13.31;76.73;101486.28;4980417;28;20031;-37
2022/09/18 03:35:13;;;;;;;10.82;1.10;;;;;;;13.27;77.78;101487.69;4980156;28;20042;-39
2022/09/18 03:37:38;;;;;;;33.40;1.83;;;;;;;13.18;78.91;101478.78;4994280;28;20030;-38
2022/09/18 03:40:04;;;;;;;12.10;1.30;;;;;;;13.15;78.83;101483.72;4980271;28;20113;-38
2022/09/18 03:42:29;;;;;;;14.35;1.30;;;;;;;13.09;80.62;101468.25;4977799;28;20039;-37
2022/09/18 03:44:56;;;;;;;24.63;1.70;;;;;;;12.97;82.33;101470.53;4971330;28;20034;-38
2022/09/18 03:47:22;;;;;;;11.10;1.23;;;;;;;12.91;83.66;101476.69;4971614;28;20023;-37
2022/09/18 03:49:47;;;;;;;18.13;1.77;;;;;;;12.86;84.75;101477.22;4971793;28;20041;-40
2022/09/18 03:52:13;;;;;;;18.00;1.50;;;;;;;12.73;85.81;101474.28;4979560;28;20034;-43
2022/09/18 03:54:38;;;;;;;20.88;1.77;;;;;;;12.64;86.46;101472.69;4984063;28;20065;-39
2022/09/18 03:57:03;;;;;;;19.15;2.10;;;;;;;12.64;87.29;101483.47;4975257;28;20470;-39
2022/09/18 03:59:29;;;;;;;15.98;1.15;;;;;;;12.55;87.68;101481.84;4971834;28;20042;-39
2022/09/18 04:01:54;;;;;;;24.25;2.00;;;;;;;12.45;88.09;101480.22;4972204;28;20482;-38
2022/09/18 04:04:19;;;;;;;26.52;1.75;;;;;;;12.44;88.07;101480.41;4971555;28;20549;-36
2022/09/18 04:06:45;;;;;;;17.58;1.45;;;;;;;12.41;88.02;101487.00;4972724;28;20043;-37
2022/09/18 04:09:10;;;;;;;14.80;1.70;;;;;;;12.42;87.90;101494.06;4973643;28;20454;-37
2022/09/18 04:11:35;;;;;;;18.23;1.23;;;;;;;12.42;87.02;101494.06;4974731;28;20488;-37
2022/09/18 04:14:00;;;;;;;13.98;2.08;;;;;;;12.47;85.36;101496.22;4974535;28;20125;-36
2022/09/18 04:16:26;;;;;;;27.27;2.17;;;;;;;12.46;84.85;101490.00;4975330;28;20092;-37
2022/09/18 04:18:51;;;;;;;14.50;1.08;;;;;;;12.49;84.48;101484.25;4976133;28;20160;-37
2022/09/18 04:21:16;;;;;;;6.45;1.02;;;;;;;12.51;84.32;101481.38;4975904;28;20038;-36
2022/09/18 04:23:42;;;;;;;23.40;2.28;;;;;;;12.53;83.99;101482.00;4975409;28;20098;-37
2022/09/18 04:26:09;;;;;;;10.40;0.93;;;;;;;12.54;84.20;101489.09;4968642;28;20054;-37
2022/09/18 04:28:35;;;;;;;20.67;1.77;;;;;;;12.60;83.14;101479.44;4975872;28;20672;-37
2022/09/18 04:31:01;;;;;;;11.75;1.10;;;;;;;12.65;82.57;101477.88;4976224;28;20046;-39
2022/09/18 04:33:26;;;;;;;17.75;1.20;;;;;;;12.69;82.00;101483.75;4977682;28;20026;-38
2022/09/18 04:35:52;;;;;;;13.82;1.55;;;;;;;12.73;82.75;101490.50;4977918;28;20027;-37
2022/09/18 04:38:18;;;;;;;16.17;1.35;;;;;;;12.68;83.14;101492.88;4975467;28;20031;-38
2022/09/18 04:40:43;;;;;;;17.73;1.77;;;;;;;12.56;84.37;101491.63;4979672;28;20045;-41
2022/09/18 04:43:10;;;;;;;19.10;1.50;;;;;;;12.41;84.62;101478.91;4983760;28;20110;-39
2022/09/18 04:45:35;;;;;;;12.82;1.10;;;;;;;12.26;85.39;101475.28;4973062;28;20039;-40
2022/09/18 04:48:01;;;;;;;21.00;2.25;;;;;;;12.19;86.35;101479.69;4970717;28;20421;-40
2022/09/18 04:50:26;;;;;;;17.90;1.63;;;;;;;12.14;87.11;101476.69;4969973;28;20647;-39
2022/09/18 04:52:51;;;;;;;15.07;2.15;;;;;;;12.11;87.75;101474.34;4970632;28;20105;-37
2022/09/18 04:55:17;;;;;;;12.63;0.98;;;;;;;12.13;87.99;101461.50;4985520;28;20052;-38
2022/09/18 04:57:42;;;;;;;14.77;1.35;;;;;;;12.16;88.22;101463.84;4972185;28;20039;-38
2022/09/18 05:00:08;;;;;;;15.38;1.27;;;;;;;12.18;88.91;101469.91;4978325;28;20050;-38
2022/09/18 05:02:34;;;;;;;18.95;1.30;;;;;;;12.22;89.24;101460.47;4970066;28;20042;-39
2022/09/18 05:04:59;;;;;;;25.45;1.90;;;;;;;12.26;89.60;101456.38;4988679;28;20026;-44
2022/09/18 05:07:24;;;;;;;16.58;1.10;;;;;;;12.28;90.19;101451.66;4979595;28;20133;-41
2022/09/18 05:09:50;;;;;;;13.98;1.20;;;;;;;12.31;90.59;101459.38;4978295;28;20125;-40
2022/09/18 05:12:15;;;;;;;10.02;1.27;;;;;;;12.33;89.10;101454.66;4960872;28;20038;-41
2022/09/18 05:14:41;;;;;;;15.80;1.17;;;;;;;12.31;85.79;101464.78;4968884;28;20054;-38
2022/09/18 05:17:06;;;;;;;28.95;1.58;;;;;;;12.34;84.85;101459.03;4962028;28;20023;-39
2022/09/18 05:19:32;;;;;;;16.45;1.48;;;;;;;12.32;84.29;101449.41;4974613;28;20038;-38
2022/09/18 05:21:57;;;;;;;14.52;1.25;;;;;;;12.33;84.28;101456.53;4976907;28;20069;-39
2022/09/18 05:24:22;;;;;;;16.08;1.42;;;;;;;12.34;85.41;101456.31;4976591;28;20482;-35
2022/09/18 05:26:48;;;;;;;25.80;2.22;;;;;;;12.35;86.94;101470.66;4976616;28;20564;-36
2022/09/18 05:29:13;;;;;;;25.00;1.55;;;;;;;12.34;88.03;101453.63;4974508;28;20035;-39
2022/09/18 05:31:38;;;;;;;14.95;1.58;;;;;;;12.28;88.37;101459.75;4982228;28;20027;-39
2022/09/18 05:34:04;;;;;;;18.33;1.40;;;;;;;12.23;89.56;101451.34;4975729;28;20126;-39
2022/09/18 05:36:29;;;;;;;13.70;1.10;;;;;;;12.18;90.07;101449.16;4966744;28;20057;-40
2022/09/18 05:38:54;;;;;;;19.02;1.45;;;;;;;12.19;90.80;101450.88;4971708;28;20023;-38
2022/09/18 05:41:20;;;;;;;17.73;1.40;;;;;;;12.22;90.04;101449.66;4963287;28;20035;-38
2022/09/18 05:43:45;;;;;;;12.25;1.27;;;;;;;12.28;90.30;101448.94;4974810;28;20039;-37
2022/09/18 05:46:11;;;;;;;20.60;1.23;;;;;;;12.33;90.24;101445.72;4976151;28;20066;-38
2022/09/18 05:48:36;;;;;;;10.10;1.10;;;;;;;12.41;89.00;101432.16;4976524;28;20038;-37
2022/09/18 05:51:02;;;;;;;34.47;1.75;;;;;;;12.52;88.23;101445.25;4975905;28;20121;-38
2022/09/18 05:53:27;;;;;;;28.20;2.60;;;;;;;12.65;86.96;101445.47;4975551;28;20138;-38
2022/09/18 05:55:52;;;;;;;27.95;2.17;;;;;;;12.77;86.99;101432.41;4976735;28;20035;-38
2022/09/18 05:58:18;;;;;;;19.38;1.55;;;;;;;12.87;85.84;101430.25;4975818;28;20034;-38
2022/09/18 06:00:45;;;;;;;16.60;1.40;;;;;;;12.95;84.45;101422.09;4974992;28;20046;-35
2022/09/18 06:03:12;;;;;;;21.75;1.90;;;;;;;12.99;82.88;101429.84;4974478;28;20047;-35
2022/09/18 06:05:38;;;;;;;;;;;;;;;13.06;82.08;101436.16;4957313;28;20106;-37
2022/09/18 06:08:06;;;;;;;21.02;1.40;;;;;;;13.11;80.46;101437.31;4956827;28;20468;-37
2022/09/18 06:10:32;;;;;;;14.77;1.60;;;;;;;13.16;79.57;101431.34;4969064;28;20038;-38
2022/09/18 06:13:05;;;;;;;18.25;1.42;;;;;;;13.20;77.42;101438.06;4986893;28;20086;-38
2022/09/18 06:15:31;;;;;;;20.10;2.15;;;;;;;13.20;76.64;101438.06;4965758;28;20050;-38
2022/09/18 06:17:57;;;;;;;11.98;1.13;;;;;;;13.24;74.40;101439.34;4965477;28;20408;-38
2022/09/18 06:20:23;;;;;;;9.55;1.08;;;;;;;13.34;73.69;101437.25;4974771;28;20031;-38
2022/09/18 06:22:48;;;;;;;8.30;1.08;;;;;;;13.42;73.80;101446.31;4966777;28;20086;-37
2022/09/18 06:25:17;;;;;;;12.27;0.85;;;;;;;13.46;73.12;101442.22;4952170;28;20039;-39
2022/09/18 06:27:42;;;;;;;15.23;1.10;;;;;;;13.51;73.13;101435.22;4966361;28;20055;-39
2022/09/18 06:30:08;;;;;;;16.55;1.15;;;;;;;13.52;73.68;101436.06;4972205;28;20031;-38
2022/09/18 06:32:33;;;;;;;12.40;1.52;;;;;;;13.55;73.78;101435.69;4971712;28;20090;-38
2022/09/18 06:34:58;;;;;;;25.77;1.42;;;;;;;13.55;74.48;101420.28;4971130;28;20031;-39
2022/09/18 06:37:24;;;;;;;16.45;1.63;;;;;;;13.58;74.29;101428.03;4972609;28;20034;-39
2022/09/18 06:39:49;;;;;;;18.15;2.15;;;;;;;13.67;76.45;101434.19;4974226;28;20019;-39
2022/09/18 06:42:15;;;;;;;20.88;1.48;;;;;;;13.69;78.97;101440.25;4974572;28;20035;-37
2022/09/18 06:44:41;;;;;;;23.08;1.77;;;;;;;13.57;81.53;101445.28;4982733;28;20027;-39
2022/09/18 06:47:06;;;;;;;39.28;3.97;;;;;;;13.52;83.68;101446.88;4967998;28;20416;-38
2022/09/18 06:49:31;;;;;;;24.92;2.15;;;;;;;13.41;84.15;101439.25;4970154;28;20023;-38
2022/09/18 06:51:57;;;;;;;24.08;1.83;;;;;;;13.36;83.96;101448.72;4971506;28;21089;-37
2022/09/18 06:54:22;;;;;;;25.75;2.20;;;;;;;13.39;83.77;101444.81;4970100;28;20094;-36
2022/09/18 06:56:48;;;;;;;18.23;1.88;;;;;;;13.38;83.84;101445.84;4971085;28;20035;-38
2022/09/18 06:59:14;;;;;;;29.42;2.05;;;;;;;13.42;83.81;101451.72;4971097;28;20097;-37
2022/09/18 07:01:40;;;;;;;18.13;1.40;;;;;;;13.39;83.84;101447.53;4967661;28;20094;-37
2022/09/18 07:04:05;;;;;;;20.02;1.70;;;;;;;13.42;83.99;101449.00;4966047;28;20114;-38
2022/09/18 07:06:30;;;;;;;23.30;1.60;;;;;;;13.50;82.25;101448.91;4969410;28;20117;-38
2022/09/18 07:08:57;;;;;;;16.02;2.13;;;;;;;13.52;81.50;101452.28;4969331;28;20092;-39
2022/09/18 07:11:22;;;;;;;20.33;2.45;;;;;;;13.53;80.91;101457.53;4969202;28;20044;-38
2022/09/18 07:13:48;;;;;;;14.80;1.40;;;;;;;13.55;81.41;101457.31;4971793;28;20030;-39
2022/09/18 07:16:14;;;;;;;19.83;1.60;;;;;;;13.57;82.52;101472.34;4968934;28;20046;-37
2022/09/18 07:18:39;;;;;;;13.05;1.65;;;;;;;13.40;84.79;101460.00;4973021;28;20039;-41
2022/09/18 07:21:05;;;;;;;12.43;1.38;;;;;;;13.16;86.10;101469.16;4986970;28;20404;-42
2022/09/18 07:23:32;;;;;;;13.27;1.92;;;;;;;12.90;88.12;101465.03;4975974;28;20054;-41
2022/09/18 07:26:01;;;;;;;15.63;1.50;;;;;;;12.76;90.28;101465.81;4977327;28;20034;-41
2022/09/18 07:28:26;;;;;;;18.58;1.35;;;;;;;12.59;91.05;101456.19;4980620;28;20073;-39
2022/09/18 07:30:52;;;;;;;20.45;1.45;;;;;;;12.44;91.58;101456.94;4981150;28;20490;-43
2022/09/18 07:33:17;;;;;;;9.95;1.10;;;;;;;12.34;92.53;101455.50;4985577;28;20062;-41
2022/09/18 07:35:42;;;;;;;17.88;2.00;;;;;;;12.26;93.02;101442.88;4984425;28;20031;-40
2022/09/18 07:38:08;;;;;;;23.70;2.17;;;;;;;12.20;94.21;101440.91;4977152;28;20146;-38
2022/09/18 07:40:34;;;;;;;19.92;2.33;;;;;;;12.17;94.86;101435.88;4977785;28;20458;-43
2022/09/18 07:43:10;;;;;;;30.23;2.97;;;;;;;12.16;95.46;101417.97;4979906;28;20035;-41
2022/09/18 07:45:35;;;;;;;26.30;1.95;;;;;;;12.18;96.29;101427.59;4977773;28;20073;-39
2022/09/18 07:48:05;;;;;;;20.30;2.03;;;;;;;12.21;96.80;101437.19;4976007;28;20397;-39
2022/09/18 07:50:31;;;;;;;24.33;1.92;;;;;;;12.29;97.30;101442.53;4969716;28;20063;-39
2022/09/18 07:52:58;;;;;;;32.42;2.20;;;;;;;12.48;96.76;101458.28;4966160;28;20482;-37
2022/09/18 07:55:25;;;;;;;23.88;3.15;;;;;;;12.55;96.48;101461.06;4976225;28;20031;-38
2022/09/18 07:57:58;;;;;;;44.05;2.88;;;;;;;12.46;95.96;101452.19;4994203;28;20073;-39
2022/09/18 08:00:25;;;;;;;41.53;2.70;;;;;;;12.41;95.66;101451.06;4964993;28;20035;-42
2022/09/18 08:02:51;;;;;;;44.30;3.30;;;;;;;12.38;96.04;101444.16;4976355;28;20039;-41
2022/09/18 08:05:16;;;;;;;30.98;2.22;;;;;;;12.36;96.26;101435.41;4966541;28;20031;-40
2022/09/18 08:07:41;;;;;;;26.10;1.90;;;;;;;12.44;96.39;101448.84;4974903;28;20058;-39
2022/09/18 08:10:09;;;;;;;10.30;1.80;;;;;;;12.50;95.76;101442.72;4974852;28;20045;-39
2022/09/18 08:12:35;;;;;;;;;;;;;;;12.61;95.06;101454.13;4974884;28;20117;-38
2022/09/18 08:15:00;;;;;;;26.08;2.10;;;;;;;12.71;94.68;101442.03;4975779;28;19969;-38
2022/09/18 08:17:25;;;;;;;20.15;2.17;;;;;;;12.79;94.44;101446.53;4975609;28;20114;-37
2022/09/18 08:19:51;;;;;;;25.05;2.90;;;;;;;12.91;93.65;101436.97;4977441;28;20027;-37
2022/09/18 08:22:16;;;;;;;28.80;1.67;;;;;;;12.99;93.07;101454.16;4975527;28;20031;-37
2022/09/18 08:24:42;;;;;;;19.67;1.42;;;;;;;13.10;89.91;101432.91;4977480;28;20095;-38
2022/09/18 08:27:07;;;;;;;15.85;1.30;;;;;;;13.20;86.82;101434.53;4980702;28;20046;-38
2022/09/18 08:29:32;;;;;;;11.95;2.38;;;;;;;13.33;84.77;101449.09;4980014;28;20022;-37
2022/09/18 08:31:58;;;;;;;19.63;1.80;;;;;;;13.50;82.38;101438.09;4981210;28;20189;-38
2022/09/18 08:34:23;;;;;;;14.68;1.15;;;;;;;13.59;81.68;101442.41;4975497;28;20037;-38
2022/09/18 08:36:48;;;;;;;15.45;1.58;;;;;;;13.72;81.48;101450.69;4980593;28;20475;-37
2022/09/18 08:39:14;;;;;;;16.95;1.27;;;;;;;13.72;81.92;101448.00;4979147;28;20533;-38
2022/09/18 08:41:51;;;;;;;18.80;1.35;;;;;;;13.78;82.08;101441.00;4977383;28;20038;-37
2022/09/18 08:44:23;;;;;;;14.63;1.58;;;;;;;13.82;77.39;101453.97;4981824;28;20090;-37
2022/09/18 08:46:56;;;;;;;12.93;1.20;;;;;;;13.80;77.10;101441.66;4984380;28;20093;-37
2022/09/18 08:49:27;;;;;;;10.52;1.15;;;;;;;13.84;75.13;101446.47;4985160;28;20051;-37
2022/09/18 08:51:53;;;;;;;6.78;0.98;;;;;;;13.83;74.96;101439.41;4985843;28;20042;-37
2022/09/18 08:54:37;;;;;;;10.07;1.40;;;;;;;13.89;74.62;101442.38;4985297;28;20031;-37
2022/09/18 08:57:09;;;;;;;6.90;0.77;;;;;;;13.93;75.26;101439.09;4984755;28;20026;-37
2022/09/18 08:59:40;;;;;;;10.30;0.90;;;;;;;13.95;76.31;101447.00;4984470;28;20056;-38
2022/09/18 09:02:08;;;;;;;25.42;1.63;;;;;;;14.02;75.42;101442.53;4985196;28;20445;-38
2022/09/18 09:04:34;;;;;;;18.65;1.20;;;;;;;14.08;76.12;101449.88;4986289;28;20042;-37
2022/09/18 09:07:18;;;;;;;22.30;1.38;;;;;;;14.15;75.31;101448.09;4985670;28;20065;-38
2022/09/18 09:10:12;;;;;;;15.55;2.15;;;;;;;14.25;76.32;101448.63;4986873;28;20087;-38
2022/09/18 09:12:57;;;;;;;12.65;1.35;;;;;;;14.35;77.15;101437.50;4987381;28;20066;-38
2022/09/18 09:15:46;;;;;;;13.02;1.20;;;;;;;14.49;75.87;101438.47;4983951;28;20046;-39
2022/09/18 09:18:22;;;;;;;9.93;1.48;;;;;;;14.60;74.34;101439.84;4985496;28;20252;-38
2022/09/18 09:20:56;;;;;;;13.45;1.42;;;;;;;14.69;73.52;101430.53;4983737;28;20574;-40
2022/09/18 09:23:24;;;;;;;14.93;2.35;;;;;;;14.69;71.58;101453.09;4986181;28;20145;-39
2022/09/18 09:26:15;;;;;;;22.55;3.13;;;;;;;14.67;73.37;101460.56;4984434;28;20031;-39
2022/09/18 09:29:00;;;;;;;17.75;1.90;;;;;;;14.55;74.64;101472.94;4984384;28;20135;-38
2022/09/18 09:31:36;;;;;;;12.75;1.42;;;;;;;14.36;76.58;101465.41;4984373;28;20073;-37
2022/09/18 09:34:25;;;;;;;31.75;2.13;;;;;;;14.18;79.06;101458.53;4983333;28;20022;-37
2022/09/18 09:36:53;;;;;;;19.05;2.05;;;;;;;14.13;80.72;101466.38;4975092;28;20043;-37
2022/09/18 09:39:33;;;;;;;;;;;;;;;13.98;80.33;101473.69;4979788;28;20031;-36
2022/09/18 09:42:06;;;;;;;32.55;2.72;;;;;;;13.77;82.08;101463.63;4979076;28;19909;-40
2022/09/18 09:44:38;;;;;;;22.00;1.70;;;;;;;13.49;84.71;101471.59;4981567;28;20038;-41
2022/09/18 09:47:25;;;;;;;26.02;3.08;;;;;;;13.24;86.04;101455.56;4972942;28;20046;-40
2022/09/18 09:50:23;;;;;;;19.27;1.92;;;;;;;13.18;87.02;101445.50;4976104;28;20134;-40
2022/09/18 09:52:48;;;;;;;;;;;;;;;13.11;88.13;101437.31;4944923;28;20043;-40
2022/09/18 09:55:14;;;;;;;20.23;1.90;;;;;;;13.20;88.94;101448.88;4968088;28;19924;-38
2022/09/18 09:58:16;;;;;;;17.58;2.13;;;;;;;13.22;89.53;101441.44;4978693;28;20042;-38
2022/09/18 10:00:54;;;;;;;13.82;1.90;;;;;;;13.31;88.83;101444.91;4975909;28;20030;-38
2022/09/18 10:03:30;;;;;;;22.23;1.58;;;;;;;13.37;89.07;101449.56;4977318;28;20102;-38
2022/09/18 10:06:22;;;;;;;26.67;2.22;;;;;;;13.49;88.78;101442.69;4975849;28;20026;-39
2022/09/18 10:09:22;;;;;;;12.68;1.38;;;;;;;13.62;85.50;101442.03;4957700;29;20093;-38
2022/09/18 10:11:59;;;;;;;5.95;0.90;;;;;;;13.78;82.80;101431.00;4960514;29;20031;-38
2022/09/18 10:14:27;;;;;;;15.93;1.70;;;;;;;13.92;80.17;101425.75;4959382;28;20113;-38
2022/09/18 10:16:53;;;;;;;17.45;1.33;;;;;;;13.99;80.47;101437.50;4979507;28;20030;-38
2022/09/18 10:19:21;;;;;;;12.32;1.20;;;;;;;14.04;81.02;101445.91;4981477;28;20039;-38
2022/09/18 10:21:48;;;;;;;16.15;1.60;;;;;;;14.10;81.46;101445.13;4981491;28;20117;-38
2022/09/18 10:24:25;;;;;;;24.92;2.00;;;;;;;14.22;81.19;101449.03;4983177;28;20103;-36
2022/09/18 10:26:57;;;;;;;13.02;1.83;;;;;;;14.32;81.68;101447.84;4981867;28;20445;-37
2022/09/18 10:29:22;;;;;;;29.63;1.67;;;;;;;14.39;81.57;101460.44;4981050;28;20053;-36
2022/09/18 10:31:56;;;;;;;31.00;1.50;;;;;;;14.44;79.18;101451.75;4982615;28;20014;-37
2022/09/18 10:34:34;;;;;;;23.58;1.27;;;;;;;14.48;78.83;101459.31;4980248;28;20031;-37
2022/09/18 10:37:00;;;;;;;10.88;1.60;;;;;;;14.43;79.39;101458.22;4982879;28;20054;-37
2022/09/18 10:39:37;;;;;;;21.35;2.33;;;;;;;14.35;80.47;101463.72;4984136;28;20027;-38
2022/09/18 10:42:04;;;;;;;19.58;1.48;;;;;;;14.19;82.07;101462.94;4982785;28;20063;-36
2022/09/18 10:44:41;;;;;;;30.60;2.00;;;;;;;14.05;83.85;101469.22;4983641;28;20062;-37
2022/09/18 10:47:30;;;;;;;21.63;1.90;;;;;;;13.54;86.07;101472.72;4973720;28;20114;-38
2022/09/18 10:50:06;;;;;;;30.52;2.05;;;;;;;13.28;87.93;101461.50;4972703;28;20498;-42
2022/09/18 10:52:38;;;;;;;22.35;1.95;;;;;;;13.08;90.23;101471.97;4984001;28;20058;-41
2022/09/18 10:55:04;;;;;;;21.55;2.95;;;;;;;12.94;91.63;101469.03;4978896;28;20118;-40
2022/09/18 10:57:33;;;;;;;35.92;3.13;;;;;;;12.81;92.23;101465.28;4974249;28;20145;-40
2022/09/18 10:59:58;;;;;;;15.35;1.10;;;;;;;12.83;92.97;101458.66;4973752;28;20458;-40
2022/09/18 11:02:28;;;;;;;15.60;1.30;;;;;;;12.84;93.42;101465.75;4972815;28;20039;-38
2022/09/18 11:04:53;;;;;;;10.27;1.45;;;;;;;12.81;93.02;101476.91;4974347;28;20038;-38
2022/09/18 11:07:21;;;;;;;21.02;1.23;;;;;;;12.76;93.55;101473.91;4973452;28;20053;-38
2022/09/18 11:09:47;;;;;;;23.25;2.00;;;;;;;12.71;93.45;101476.31;4972783;28;20037;-40
2022/09/18 11:12:24;;;;;;;13.95;1.60;;;;;;;12.74;93.69;101474.13;4972957;28;20084;-40
2022/09/18 11:15:03;;;;;;;21.17;1.55;;;;;;;12.73;93.70;101474.28;4977797;28;20035;-45
2022/09/18 11:17:31;;;;;;;21.65;2.22;;;;;;;12.72;94.58;101467.22;4974015;28;20034;-42
2022/09/18 11:19:58;;;;;;;16.85;2.00;;;;;;;12.69;95.88;101467.53;4977163;28;20039;-40
2022/09/18 11:22:32;;;;;;;19.27;1.63;;;;;;;12.67;96.42;101469.63;4973546;28;20097;-40
2022/09/18 11:25:13;;;;;;;19.05;1.42;;;;;;;12.65;97.07;101479.75;4980917;28;20479;-41
2022/09/18 11:27:50;;;;;;;20.38;1.98;;;;;;;12.67;97.56;101475.00;4979214;28;20394;-43
2022/09/18 11:30:28;;;;;;;23.60;2.20;;;;;;;12.67;97.65;101466.91;4976367;28;20107;-42
2022/09/18 11:32:59;;;;;;;33.65;2.42;;;;;;;12.68;97.70;101471.28;4969623;28;20089;-40